sensor_id;sensor_type;location;lat;lon;timestamp;pressure;altitude;pressure_sealevel;temperature;humidity
68712;BME280;55690;51.566;19.198;2023-02-04T00:01:58;100715.00;;;7.96;85.87
68712;BME280;55690;51.566;19.198;2023-02-04T00:06:05;100708.13;;;8.19;84.73
68712;BME280;55690;51.566;19.198;2023-02-04T00:10:11;100713.65;;;8.03;84.84
68712;BME280;55690;51.566;19.198;2023-02-04T00:14:17;100713.53;;;8.19;83.95
68712;BME280;55690;51.566;19.198;2023-02-04T00:18:23;100716.75;;;7.68;84.81
68712;BME280;55690;51.566;19.198;2023-02-04T00:22:29;100724.76;;;7.98;84.54
68712;BME280;55690;51.566;19.198;2023-02-04T00:26:36;100726.38;;;7.87;84.08
68712;BME280;55690;51.566;19.198;2023-02-04T00:30:42;100728.51;;;8.10;83.69
68712;BME280;55690;51.566;19.198;2023-02-04T00:34:48;100736.82;;;7.93;84.06
68712;BME280;55690;51.566;19.198;2023-02-04T00:38:54;100744.83;;;7.66;84.86
68712;BME280;55690;51.566;19.198;2023-02-04T00:43:00;100758.55;;;7.77;84.56
68712;BME280;55690;51.566;19.198;2023-02-04T00:47:06;100776.96;;;7.56;84.65
68712;BME280;55690;51.566;19.198;2023-02-04T00:51:12;100796.08;;;7.23;85.69
68712;BME280;55690;51.566;19.198;2023-02-04T00:55:19;100832.97;;;6.77;86.91
68712;BME280;55690;51.566;19.198;2023-02-04T00:59:25;100839.33;;;6.76;86.45
68712;BME280;55690;51.566;19.198;2023-02-04T01:03:31;100853.55;;;5.98;87.49
68712;BME280;55690;51.566;19.198;2023-02-04T01:07:37;100862.17;;;5.87;88.07
68712;BME280;55690;51.566;19.198;2023-02-04T01:11:43;100899.17;;;5.66;89.26
68712;BME280;55690;51.566;19.198;2023-02-04T01:15:49;100906.23;;;5.52;89.02
68712;BME280;55690;51.566;19.198;2023-02-04T01:19:56;100924.89;;;5.38;89.12
68712;BME280;55690;51.566;19.198;2023-02-04T01:24:02;100945.97;;;5.11;90.06
68712;BME280;55690;51.566;19.198;2023-02-04T01:28:08;100974.05;;;5.05;89.20
68712;BME280;55690;51.566;19.198;2023-02-04T01:32:14;100980.17;;;5.09;89.12
68712;BME280;55690;51.566;19.198;2023-02-04T01:36:20;100993.22;;;5.54;87.54
68712;BME280;55690;51.566;19.198;2023-02-04T01:40:27;101020.62;;;5.07;88.83
68712;BME280;55690;51.566;19.198;2023-02-04T01:44:33;101061.38;;;4.39;90.44
68712;BME280;55690;51.566;19.198;2023-02-04T01:48:39;101067.09;;;3.45;90.85
68712;BME280;55690;51.566;19.198;2023-02-04T01:52:45;101099.43;;;4.50;88.73
68712;BME280;55690;51.566;19.198;2023-02-04T01:56:51;101126.09;;;4.76;88.60
68712;BME280;55690;51.566;19.198;2023-02-04T02:00:58;101148.52;;;4.55;88.98
68712;BME280;55690;51.566;19.198;2023-02-04T02:05:04;101167.11;;;3.74;88.74
68712;BME280;55690;51.566;19.198;2023-02-04T02:09:10;101192.38;;;4.77;87.01
68712;BME280;55690;51.566;19.198;2023-02-04T02:13:17;101204.30;;;4.72;86.76
68712;BME280;55690;51.566;19.198;2023-02-04T02:17:23;101225.93;;;4.03;89.24
68712;BME280;55690;51.566;19.198;2023-02-04T02:21:37;101233.85;;;4.29;87.13
68712;BME280;55690;51.566;19.198;2023-02-04T02:25:40;101264.36;;;4.72;86.66
68712;BME280;55690;51.566;19.198;2023-02-04T02:29:41;101288.05;;;4.84;86.24
68712;BME280;55690;51.566;19.198;2023-02-04T02:33:47;101281.02;;;4.37;86.22
68712;BME280;55690;51.566;19.198;2023-02-04T02:37:53;101322.12;;;4.40;84.75
68712;BME280;55690;51.566;19.198;2023-02-04T02:41:59;101346.06;;;4.24;86.10
68712;BME280;55690;51.566;19.198;2023-02-04T02:46:06;101372.70;;;3.57;87.17
68712;BME280;55690;51.566;19.198;2023-02-04T02:50:15;101401.45;;;4.52;86.91
68712;BME280;55690;51.566;19.198;2023-02-04T02:54:22;101427.12;;;3.89;87.56
68712;BME280;55690;51.566;19.198;2023-02-04T02:58:33;101450.80;;;4.51;86.67
68712;BME280;55690;51.566;19.198;2023-02-04T03:02:36;101500.11;;;4.26;86.63
68712;BME280;55690;51.566;19.198;2023-02-04T03:06:38;101513.66;;;4.23;87.04
68712;BME280;55690;51.566;19.198;2023-02-04T03:10:44;101540.20;;;4.57;86.09
68712;BME280;55690;51.566;19.198;2023-02-04T03:14:49;101553.01;;;3.99;86.44
68712;BME280;55690;51.566;19.198;2023-02-04T03:18:56;101559.80;;;3.85;87.23
68712;BME280;55690;51.566;19.198;2023-02-04T03:23:02;101590.88;;;3.92;87.95
68712;BME280;55690;51.566;19.198;2023-02-04T03:27:08;101616.50;;;4.30;85.42
68712;BME280;55690;51.566;19.198;2023-02-04T03:31:14;101656.61;;;3.82;87.13
68712;BME280;55690;51.566;19.198;2023-02-04T03:35:20;101673.30;;;4.19;86.04
68712;BME280;55690;51.566;19.198;2023-02-04T03:39:26;101686.84;;;4.43;84.95
68712;BME280;55690;51.566;19.198;2023-02-04T03:43:33;101696.86;;;4.38;83.45
68712;BME280;55690;51.566;19.198;2023-02-04T03:47:39;101732.15;;;4.28;84.73
68712;BME280;55690;51.566;19.198;2023-02-04T03:51:45;101747.02;;;3.83;83.58
68712;BME280;55690;51.566;19.198;2023-02-04T03:55:51;101769.05;;;3.94;83.91
68712;BME280;55690;51.566;19.198;2023-02-04T03:59:57;101785.14;;;4.25;83.09
68712;BME280;55690;51.566;19.198;2023-02-04T04:04:03;101791.76;;;4.13;83.87
68712;BME280;55690;51.566;19.198;2023-02-04T04:08:10;101826.25;;;4.28;82.77
68712;BME280;55690;51.566;19.198;2023-02-04T04:12:16;101847.15;;;4.19;82.88
68712;BME280;55690;51.566;19.198;2023-02-04T04:16:22;101862.45;;;4.17;82.98
68712;BME280;55690;51.566;19.198;2023-02-04T04:20:29;101872.76;;;4.88;82.03
68712;BME280;55690;51.566;19.198;2023-02-04T04:24:34;101899.77;;;4.57;82.39
68712;BME280;55690;51.566;19.198;2023-02-04T04:28:41;101916.60;;;4.63;82.58
68712;BME280;55690;51.566;19.198;2023-02-04T04:32:47;101931.96;;;4.60;81.72
68712;BME280;55690;51.566;19.198;2023-02-04T04:36:53;101953.30;;;4.35;81.35
68712;BME280;55690;51.566;19.198;2023-02-04T04:40:59;101972.66;;;4.77;80.94
68712;BME280;55690;51.566;19.198;2023-02-04T04:45:07;101987.91;;;4.47;80.90
68712;BME280;55690;51.566;19.198;2023-02-04T04:49:12;102018.70;;;4.97;80.72
68712;BME280;55690;51.566;19.198;2023-02-04T04:53:18;102036.39;;;5.06;80.17
68712;BME280;55690;51.566;19.198;2023-02-04T04:57:24;102055.45;;;4.37;81.34
68712;BME280;55690;51.566;19.198;2023-02-04T05:01:31;102077.22;;;4.91;81.25
68712;BME280;55690;51.566;19.198;2023-02-04T05:05:36;102085.29;;;4.91;80.04
68712;BME280;55690;51.566;19.198;2023-02-04T05:09:42;102095.01;;;4.65;80.78
68712;BME280;55690;51.566;19.198;2023-02-04T05:13:49;102132.43;;;4.75;80.94
68712;BME280;55690;51.566;19.198;2023-02-04T05:17:55;102136.37;;;4.61;80.70
68712;BME280;55690;51.566;19.198;2023-02-04T05:22:01;102149.84;;;4.92;79.78
68712;BME280;55690;51.566;19.198;2023-02-04T05:26:07;102167.45;;;4.73;79.22
68712;BME280;55690;51.566;19.198;2023-02-04T05:30:14;102193.16;;;4.83;80.14
68712;BME280;55690;51.566;19.198;2023-02-04T05:34:20;102219.62;;;4.67;79.40
68712;BME280;55690;51.566;19.198;2023-02-04T05:38:26;102227.87;;;4.94;79.71
68712;BME280;55690;51.566;19.198;2023-02-04T05:42:32;102239.82;;;5.16;78.85
68712;BME280;55690;51.566;19.198;2023-02-04T05:46:38;102263.66;;;5.30;78.76
68712;BME280;55690;51.566;19.198;2023-02-04T05:50:44;102290.01;;;4.85;79.18
68712;BME280;55690;51.566;19.198;2023-02-04T05:54:50;102313.54;;;5.45;78.06
68712;BME280;55690;51.566;19.198;2023-02-04T05:58:57;102309.20;;;4.34;79.77
68712;BME280;55690;51.566;19.198;2023-02-04T06:03:03;102320.49;;;4.85;79.58
68712;BME280;55690;51.566;19.198;2023-02-04T06:07:09;102333.24;;;4.77;79.83
68712;BME280;55690;51.566;19.198;2023-02-04T06:11:15;102347.95;;;4.64;79.41
68712;BME280;55690;51.566;19.198;2023-02-04T06:15:21;102358.04;;;5.25;78.56
68712;BME280;55690;51.566;19.198;2023-02-04T06:19:28;102381.59;;;5.19;79.10
68712;BME280;55690;51.566;19.198;2023-02-04T06:23:34;102378.78;;;4.86;79.39
68712;BME280;55690;51.566;19.198;2023-02-04T06:27:40;102405.97;;;5.13;78.61
68712;BME280;55690;51.566;19.198;2023-02-04T06:31:46;102417.26;;;5.27;78.80
68712;BME280;55690;51.566;19.198;2023-02-04T06:35:52;102374.52;;;4.39;79.39
68712;BME280;55690;51.566;19.198;2023-02-04T06:39:59;102441.08;;;4.71;79.36
68712;BME280;55690;51.566;19.198;2023-02-04T06:44:05;102447.53;;;4.62;78.54
68712;BME280;55690;51.566;19.198;2023-02-04T06:48:11;102458.38;;;4.98;78.78
68712;BME280;55690;51.566;19.198;2023-02-04T06:52:17;102472.81;;;4.94;78.08
68712;BME280;55690;51.566;19.198;2023-02-04T06:56:23;102486.61;;;4.79;77.03
68712;BME280;55690;51.566;19.198;2023-02-04T07:00:29;102502.87;;;4.76;78.11
68712;BME280;55690;51.566;19.198;2023-02-04T07:04:36;102514.52;;;4.33;77.77
68712;BME280;55690;51.566;19.198;2023-02-04T07:08:42;102521.05;;;4.64;77.54
68712;BME280;55690;51.566;19.198;2023-02-04T07:12:48;102521.73;;;4.74;77.05
68712;BME280;55690;51.566;19.198;2023-02-04T07:16:54;102538.61;;;4.81;76.38
68712;BME280;55690;51.566;19.198;2023-02-04T07:21:00;102541.93;;;4.93;75.45
68712;BME280;55690;51.566;19.198;2023-02-04T07:25:07;102545.29;;;4.63;76.49
68712;BME280;55690;51.566;19.198;2023-02-04T07:29:13;102551.67;;;4.57;76.96
68712;BME280;55690;51.566;19.198;2023-02-04T07:33:19;102541.80;;;4.58;75.90
68712;BME280;55690;51.566;19.198;2023-02-04T07:37:25;102557.31;;;5.64;74.37
68712;BME280;55690;51.566;19.198;2023-02-04T07:41:32;102572.98;;;5.10;73.91
68712;BME280;55690;51.566;19.198;2023-02-04T07:45:38;102591.25;;;5.73;73.72
68712;BME280;55690;51.566;19.198;2023-02-04T07:49:44;102590.99;;;6.19;72.51
68712;BME280;55690;51.566;19.198;2023-02-04T07:53:50;102605.68;;;6.74;70.70
68712;BME280;55690;51.566;19.198;2023-02-04T07:57:56;102611.88;;;6.77;70.41
68712;BME280;55690;51.566;19.198;2023-02-04T08:02:02;102614.48;;;6.49;70.44
68712;BME280;55690;51.566;19.198;2023-02-04T08:06:09;102627.80;;;5.84;71.28
68712;BME280;55690;51.566;19.198;2023-02-04T08:10:15;102628.03;;;6.12;69.92
68712;BME280;55690;51.566;19.198;2023-02-04T08:14:21;102643.13;;;6.53;69.86
68712;BME280;55690;51.566;19.198;2023-02-04T08:18:27;102652.99;;;6.54;68.88
68712;BME280;55690;51.566;19.198;2023-02-04T08:22:34;102663.37;;;7.02;67.96
68712;BME280;55690;51.566;19.198;2023-02-04T08:26:41;102677.02;;;7.58;67.93
68712;BME280;55690;51.566;19.198;2023-02-04T08:30:46;102686.81;;;6.35;67.78
68712;BME280;55690;51.566;19.198;2023-02-04T08:34:52;102702.30;;;6.61;67.06
68712;BME280;55690;51.566;19.198;2023-02-04T08:38:58;102710.90;;;6.77;66.67
68712;BME280;55690;51.566;19.198;2023-02-04T08:43:04;102725.28;;;7.10;66.49
68712;BME280;55690;51.566;19.198;2023-02-04T08:47:11;102736.77;;;7.18;66.35
68712;BME280;55690;51.566;19.198;2023-02-04T08:51:17;102742.08;;;7.52;65.27
68712;BME280;55690;51.566;19.198;2023-02-04T08:55:23;102758.95;;;6.96;65.54
68712;BME280;55690;51.566;19.198;2023-02-04T08:59:29;102759.35;;;7.77;65.61
68712;BME280;55690;51.566;19.198;2023-02-04T09:03:38;102765.73;;;7.75;64.54
68712;BME280;55690;51.566;19.198;2023-02-04T09:07:41;102766.05;;;7.64;63.80
68712;BME280;55690;51.566;19.198;2023-02-04T09:11:48;102782.18;;;7.04;65.67
68712;BME280;55690;51.566;19.198;2023-02-04T09:15:54;102780.17;;;7.43;64.64
68712;BME280;55690;51.566;19.198;2023-02-04T09:20:00;102785.67;;;7.40;64.88
68712;BME280;55690;51.566;19.198;2023-02-04T09:24:07;102794.38;;;6.86;65.17
68712;BME280;55690;51.566;19.198;2023-02-04T09:28:13;102812.78;;;7.37;65.19
68712;BME280;55690;51.566;19.198;2023-02-04T09:32:18;102813.76;;;6.66;66.27
68712;BME280;55690;51.566;19.198;2023-02-04T09:36:25;102811.07;;;7.00;64.80
68712;BME280;55690;51.566;19.198;2023-02-04T09:40:34;102811.45;;;6.86;65.11
68712;BME280;55690;51.566;19.198;2023-02-04T09:44:38;102829.64;;;7.14;64.84
68712;BME280;55690;51.566;19.198;2023-02-04T09:48:43;102829.64;;;7.14;63.69
68712;BME280;55690;51.566;19.198;2023-02-04T09:52:52;102849.52;;;7.11;65.22
68712;BME280;55690;51.566;19.198;2023-02-04T09:56:56;102854.36;;;6.61;64.45
68712;BME280;55690;51.566;19.198;2023-02-04T10:05:23;102874.15;;;6.23;66.24
68712;BME280;55690;51.566;19.198;2023-02-04T10:09:25;102878.66;;;5.78;65.34
68712;BME280;55690;51.566;19.198;2023-02-04T10:13:31;102890.21;;;6.68;65.74
68712;BME280;55690;51.566;19.198;2023-02-04T10:17:35;102896.11;;;6.85;65.52
68712;BME280;55690;51.566;19.198;2023-02-04T10:21:38;102895.49;;;6.73;65.94
68712;BME280;55690;51.566;19.198;2023-02-04T10:25:40;102901.98;;;6.25;65.58
68712;BME280;55690;51.566;19.198;2023-02-04T10:29:57;102891.28;;;6.21;65.93
68712;BME280;55690;51.566;19.198;2023-02-04T10:38:13;102903.32;;;6.06;67.13
68712;BME280;55690;51.566;19.198;2023-02-04T10:42:24;102904.25;;;6.45;66.27
68712;BME280;55690;51.566;19.198;2023-02-04T10:46:29;102907.80;;;6.47;66.41
68712;BME280;55690;51.566;19.198;2023-02-04T10:50:32;102892.63;;;7.16;66.28
68712;BME280;55690;51.566;19.198;2023-02-04T10:54:36;102895.55;;;7.41;65.00
68712;BME280;55690;51.566;19.198;2023-02-04T10:58:38;102917.88;;;7.15;64.97
68712;BME280;55690;51.566;19.198;2023-02-04T11:06:55;102918.75;;;7.15;65.52
68712;BME280;55690;51.566;19.198;2023-02-04T11:10:59;102932.70;;;6.58;67.73
68712;BME280;55690;51.566;19.198;2023-02-04T11:15:02;102945.95;;;6.71;67.79
68712;BME280;55690;51.566;19.198;2023-02-04T11:19:10;102953.26;;;6.24;69.02
68712;BME280;55690;51.566;19.198;2023-02-04T11:36:01;102952.27;;;6.70;69.24
68712;BME280;55690;51.566;19.198;2023-02-04T11:40:52;102938.82;;;7.75;67.76
68712;BME280;55690;51.566;19.198;2023-02-04T11:44:19;102953.77;;;7.20;67.25
68712;BME280;55690;51.566;19.198;2023-02-04T11:48:24;102953.93;;;6.75;68.06
68712;BME280;55690;51.566;19.198;2023-02-04T11:52:26;102945.03;;;7.09;67.93
68712;BME280;55690;51.566;19.198;2023-02-04T11:56:28;102911.02;;;8.00;66.76
68712;BME280;55690;51.566;19.198;2023-02-04T12:00:31;102927.08;;;7.76;66.36
68712;BME280;55690;51.566;19.198;2023-02-04T12:04:34;102937.68;;;7.49;67.23
68712;BME280;55690;51.566;19.198;2023-02-04T12:08:35;102953.14;;;7.44;68.07
68712;BME280;55690;51.566;19.198;2023-02-04T12:12:43;102960.31;;;7.10;68.78
68712;BME280;55690;51.566;19.198;2023-02-04T12:16:49;102952.21;;;7.45;67.54
68712;BME280;55690;51.566;19.198;2023-02-04T12:20:57;102962.41;;;6.97;68.65
68712;BME280;55690;51.566;19.198;2023-02-04T12:24:59;102960.57;;;7.36;68.01
68712;BME280;55690;51.566;19.198;2023-02-04T12:29:01;102950.04;;;7.59;67.77
68712;BME280;55690;51.566;19.198;2023-02-04T12:33:05;102964.93;;;7.05;68.82
68712;BME280;55690;51.566;19.198;2023-02-04T12:37:07;102956.69;;;7.46;68.58
68712;BME280;55690;51.566;19.198;2023-02-04T12:41:09;102950.07;;;7.58;68.28
68712;BME280;55690;51.566;19.198;2023-02-04T12:45:12;102952.63;;;7.64;68.16
68712;BME280;55690;51.566;19.198;2023-02-04T12:49:15;102965.50;;;7.19;68.80
68712;BME280;55690;51.566;19.198;2023-02-04T12:53:22;102978.65;;;6.95;68.41
68712;BME280;55690;51.566;19.198;2023-02-04T12:57:28;102967.73;;;7.73;67.59
68712;BME280;55690;51.566;19.198;2023-02-04T13:01:34;102970.86;;;7.56;68.11
68712;BME280;55690;51.566;19.198;2023-02-04T13:05:40;102967.77;;;6.98;68.74
68712;BME280;55690;51.566;19.198;2023-02-04T13:09:47;102983.77;;;7.08;67.34
68712;BME280;55690;51.566;19.198;2023-02-04T13:13:52;102981.64;;;6.85;68.13
68712;BME280;55690;51.566;19.198;2023-02-04T13:17:59;102998.14;;;7.10;68.53
68712;BME280;55690;51.566;19.198;2023-02-04T13:22:05;102996.25;;;7.13;69.00
68712;BME280;55690;51.566;19.198;2023-02-04T13:26:11;103000.02;;;7.43;68.40
68712;BME280;55690;51.566;19.198;2023-02-04T13:30:17;103008.16;;;7.05;69.56
68712;BME280;55690;51.566;19.198;2023-02-04T13:34:23;103012.87;;;6.55;69.80
68712;BME280;55690;51.566;19.198;2023-02-04T13:38:30;103007.85;;;7.18;69.14
68712;BME280;55690;51.566;19.198;2023-02-04T13:42:36;103015.15;;;5.84;70.39
68712;BME280;55690;51.566;19.198;2023-02-04T13:46:42;103032.68;;;6.09;70.27
68712;BME280;55690;51.566;19.198;2023-02-04T13:50:48;103033.94;;;6.38;69.06
68712;BME280;55690;51.566;19.198;2023-02-04T13:54:55;103037.93;;;6.61;69.47
68712;BME280;55690;51.566;19.198;2023-02-04T13:59:00;103036.30;;;6.53;69.44
68712;BME280;55690;51.566;19.198;2023-02-04T14:03:07;103044.34;;;6.56;69.86
68712;BME280;55690;51.566;19.198;2023-02-04T14:07:13;103049.76;;;6.10;70.75
68712;BME280;55690;51.566;19.198;2023-02-04T14:11:19;103049.01;;;6.03;71.13
68712;BME280;55690;51.566;19.198;2023-02-04T14:15:25;103056.62;;;6.27;71.18
68712;BME280;55690;51.566;19.198;2023-02-04T14:19:32;103053.95;;;6.71;70.36
68712;BME280;55690;51.566;19.198;2023-02-04T14:23:41;103051.67;;;6.05;70.01
68712;BME280;55690;51.566;19.198;2023-02-04T14:27:51;103045.05;;;6.21;69.73
68712;BME280;55690;51.566;19.198;2023-02-04T14:31:53;103045.72;;;6.33;69.61
68712;BME280;55690;51.566;19.198;2023-02-04T14:35:56;103054.64;;;6.37;69.34
68712;BME280;55690;51.566;19.198;2023-02-04T14:40:04;103054.04;;;6.21;69.65
68712;BME280;55690;51.566;19.198;2023-02-04T14:44:09;103051.47;;;6.60;69.30
68712;BME280;55690;51.566;19.198;2023-02-04T14:48:15;103048.24;;;6.43;69.34
68712;BME280;55690;51.566;19.198;2023-02-04T14:52:21;103046.05;;;6.60;69.75
68712;BME280;55690;51.566;19.198;2023-02-04T14:56:27;103050.95;;;5.95;71.63
68712;BME280;55690;51.566;19.198;2023-02-04T15:00:33;103066.52;;;5.76;73.28
68712;BME280;55690;51.566;19.198;2023-02-04T15:04:39;103061.90;;;5.83;73.31
68712;BME280;55690;51.566;19.198;2023-02-04T15:08:46;103063.20;;;5.60;74.70
68712;BME280;55690;51.566;19.198;2023-02-04T15:12:52;103060.84;;;5.39;75.32
68712;BME280;55690;51.566;19.198;2023-02-04T15:16:58;103065.87;;;5.62;74.90
68712;BME280;55690;51.566;19.198;2023-02-04T15:21:04;103065.87;;;5.62;74.28
68712;BME280;55690;51.566;19.198;2023-02-04T15:25:12;103066.97;;;6.04;73.93
68712;BME280;55690;51.566;19.198;2023-02-04T15:29:17;103064.06;;;5.04;74.83
68712;BME280;55690;51.566;19.198;2023-02-04T15:33:23;103053.43;;;5.53;74.21
68712;BME280;55690;51.566;19.198;2023-02-04T15:37:29;103062.09;;;5.72;74.74
68712;BME280;55690;51.566;19.198;2023-02-04T15:41:35;103065.49;;;5.28;73.68
68712;BME280;55690;51.566;19.198;2023-02-04T15:45:41;103065.15;;;5.51;73.84
68712;BME280;55690;51.566;19.198;2023-02-04T15:49:47;103080.49;;;5.46;73.33
68712;BME280;55690;51.566;19.198;2023-02-04T15:53:54;103087.71;;;5.44;73.70
68712;BME280;55690;51.566;19.198;2023-02-04T15:58:00;103084.45;;;5.79;73.04
68712;BME280;55690;51.566;19.198;2023-02-04T16:02:07;103093.31;;;5.85;72.61
68712;BME280;55690;51.566;19.198;2023-02-04T16:06:12;103102.08;;;5.44;72.86
68712;BME280;55690;51.566;19.198;2023-02-04T16:10:19;103109.52;;;6.36;71.64
68712;BME280;55690;51.566;19.198;2023-02-04T16:14:25;103113.91;;;6.42;71.54
68712;BME280;55690;51.566;19.198;2023-02-04T16:22:32;103126.45;;;5.95;71.85
68712;BME280;55690;51.566;19.198;2023-02-04T16:26:38;103139.59;;;5.59;71.99
68712;BME280;55690;51.566;19.198;2023-02-04T16:30:44;103147.31;;;5.81;72.30
68712;BME280;55690;51.566;19.198;2023-02-04T16:34:50;103144.55;;;5.25;72.32
68712;BME280;55690;51.566;19.198;2023-02-04T16:38:56;103159.28;;;4.98;73.18
68712;BME280;55690;51.566;19.198;2023-02-04T16:43:02;103174.94;;;4.63;73.29
68712;BME280;55690;51.566;19.198;2023-02-04T16:47:09;103178.05;;;5.05;72.88
68712;BME280;55690;51.566;19.198;2023-02-04T16:51:15;103172.13;;;5.44;71.42
68712;BME280;55690;51.566;19.198;2023-02-04T16:55:21;103186.96;;;5.10;72.60
68712;BME280;55690;51.566;19.198;2023-02-04T16:59:28;103182.31;;;5.21;70.96
68712;BME280;55690;51.566;19.198;2023-02-04T17:03:33;103185.42;;;5.58;71.04
68712;BME280;55690;51.566;19.198;2023-02-04T17:07:39;103191.25;;;5.90;69.94
68712;BME280;55690;51.566;19.198;2023-02-04T17:11:46;103193.90;;;5.93;70.20
68712;BME280;55690;51.566;19.198;2023-02-04T17:15:52;103189.02;;;6.15;68.91
68712;BME280;55690;51.566;19.198;2023-02-04T17:20:00;103189.43;;;5.92;69.47
68712;BME280;55690;51.566;19.198;2023-02-04T17:24:08;103201.10;;;5.93;69.56
68712;BME280;55690;51.566;19.198;2023-02-04T17:28:11;103194.38;;;5.60;69.63
68712;BME280;55690;51.566;19.198;2023-02-04T17:32:17;103198.84;;;5.62;69.86
68712;BME280;55690;51.566;19.198;2023-02-04T17:36:23;103206.59;;;5.84;69.09
68712;BME280;55690;51.566;19.198;2023-02-04T17:40:29;103209.83;;;5.47;70.18
68712;BME280;55690;51.566;19.198;2023-02-04T17:44:35;103215.88;;;4.92;71.09
68712;BME280;55690;51.566;19.198;2023-02-04T17:48:41;103233.20;;;5.45;70.26
68712;BME280;55690;51.566;19.198;2023-02-04T17:52:48;103235.24;;;5.25;70.42
68712;BME280;55690;51.566;19.198;2023-02-04T17:57:00;103234.92;;;4.76;70.88
68712;BME280;55690;51.566;19.198;2023-02-04T18:01:14;103243.73;;;4.88;69.93
68712;BME280;55690;51.566;19.198;2023-02-04T18:05:21;103235.51;;;5.73;69.33
68712;BME280;55690;51.566;19.198;2023-02-04T18:09:23;103241.95;;;4.89;70.68
68712;BME280;55690;51.566;19.198;2023-02-04T18:13:30;103248.20;;;4.91;70.76
68712;BME280;55690;51.566;19.198;2023-02-04T18:17:32;103250.41;;;5.32;70.97
68712;BME280;55690;51.566;19.198;2023-02-04T18:21:35;103245.63;;;5.57;70.69
68712;BME280;55690;51.566;19.198;2023-02-04T18:25:37;103255.58;;;5.52;70.91
68712;BME280;55690;51.566;19.198;2023-02-04T18:29:46;103252.32;;;5.22;71.35
68712;BME280;55690;51.566;19.198;2023-02-04T18:33:49;103261.93;;;5.46;71.11
68712;BME280;55690;51.566;19.198;2023-02-04T18:37:56;103259.29;;;5.42;70.79
68712;BME280;55690;51.566;19.198;2023-02-04T18:42:10;103269.66;;;4.98;71.61
68712;BME280;55690;51.566;19.198;2023-02-04T18:50:30;103250.20;;;4.74;71.30
68712;BME280;55690;51.566;19.198;2023-02-04T18:54:34;103273.96;;;5.18;70.39
68712;BME280;55690;51.566;19.198;2023-02-04T18:58:40;103281.77;;;4.55;70.92
68712;BME280;55690;51.566;19.198;2023-02-04T19:02:47;103285.39;;;4.49;71.12
68712;BME280;55690;51.566;19.198;2023-02-04T19:06:51;103275.41;;;4.62;70.12
68712;BME280;55690;51.566;19.198;2023-02-04T19:10:58;103286.85;;;4.85;70.37
68712;BME280;55690;51.566;19.198;2023-02-04T19:14:59;103295.16;;;4.61;70.76
68712;BME280;55690;51.566;19.198;2023-02-04T19:23:18;103290.05;;;4.29;71.06
68712;BME280;55690;51.566;19.198;2023-02-04T19:27:27;103301.59;;;4.42;71.48
68712;BME280;55690;51.566;19.198;2023-02-04T19:31:32;103302.75;;;4.04;72.27
68712;BME280;55690;51.566;19.198;2023-02-04T19:35:40;103309.48;;;4.64;70.90
68712;BME280;55690;51.566;19.198;2023-02-04T19:39:52;103299.79;;;5.34;69.49
68712;BME280;55690;51.566;19.198;2023-02-04T19:48:19;103307.55;;;4.79;70.68
68712;BME280;55690;51.566;19.198;2023-02-04T19:52:32;103298.33;;;5.06;70.39
68712;BME280;55690;51.566;19.198;2023-02-04T19:56:36;103313.28;;;5.32;70.51
68712;BME280;55690;51.566;19.198;2023-02-04T20:04:53;103336.20;;;4.84;71.22
68712;BME280;55690;51.566;19.198;2023-02-04T20:09:13;103331.96;;;4.59;72.54
68712;BME280;55690;51.566;19.198;2023-02-04T20:13:17;103331.82;;;4.76;71.87
68712;BME280;55690;51.566;19.198;2023-02-04T20:17:30;103342.49;;;4.85;72.23
68712;BME280;55690;51.566;19.198;2023-02-04T20:21:32;103332.38;;;5.11;71.18
68712;BME280;55690;51.566;19.198;2023-02-04T20:29:45;103341.31;;;5.18;71.54
68712;BME280;55690;51.566;19.198;2023-02-04T20:33:57;103344.77;;;5.27;71.43
68712;BME280;55690;51.566;19.198;2023-02-04T20:37:57;103355.01;;;4.90;71.84
68712;BME280;55690;51.566;19.198;2023-02-04T20:46:20;103341.17;;;5.27;71.01
68712;BME280;55690;51.566;19.198;2023-02-04T20:50:32;103345.18;;;4.86;71.84
68712;BME280;55690;51.566;19.198;2023-02-04T20:54:37;103352.99;;;5.15;72.01
68712;BME280;55690;51.566;19.198;2023-02-04T20:58:42;103351.70;;;5.51;70.72
68712;BME280;55690;51.566;19.198;2023-02-04T21:02:44;103353.08;;;5.06;70.67
68712;BME280;55690;51.566;19.198;2023-02-04T21:06:45;103352.56;;;5.55;70.79
68712;BME280;55690;51.566;19.198;2023-02-04T21:10:47;103352.02;;;5.21;70.43
68712;BME280;55690;51.566;19.198;2023-02-04T21:14:49;103367.12;;;5.37;71.15
68712;BME280;55690;51.566;19.198;2023-02-04T21:18:50;103366.89;;;4.65;72.89
68712;BME280;55690;51.566;19.198;2023-02-04T21:22:54;103363.78;;;5.14;72.25
68712;BME280;55690;51.566;19.198;2023-02-04T21:26:56;103358.44;;;5.90;70.82
68712;BME280;55690;51.566;19.198;2023-02-04T21:30:59;103363.37;;;5.53;71.33
68712;BME280;55690;51.566;19.198;2023-02-04T21:35:00;103370.62;;;5.47;71.55
68712;BME280;55690;51.566;19.198;2023-02-04T21:39:02;103375.52;;;5.89;70.56
68712;BME280;55690;51.566;19.198;2023-02-04T21:43:05;103381.34;;;5.51;71.44
68712;BME280;55690;51.566;19.198;2023-02-04T21:47:08;103374.45;;;5.21;72.14
68712;BME280;55690;51.566;19.198;2023-02-04T21:51:10;103393.18;;;5.37;70.99
68712;BME280;55690;51.566;19.198;2023-02-04T21:55:14;103392.03;;;5.60;70.65
68712;BME280;55690;51.566;19.198;2023-02-04T21:59:16;103400.60;;;5.13;71.70
68712;BME280;55690;51.566;19.198;2023-02-04T22:03:20;103398.41;;;5.52;71.77
68712;BME280;55690;51.566;19.198;2023-02-04T22:07:21;103413.80;;;5.41;71.55
68712;BME280;55690;51.566;19.198;2023-02-04T22:11:23;103406.66;;;5.33;71.23
68712;BME280;55690;51.566;19.198;2023-02-04T22:15:24;103423.13;;;5.01;72.51
68712;BME280;55690;51.566;19.198;2023-02-04T22:19:30;103424.24;;;4.76;72.93